createdAt,value
2023-04-04T00:01:55.318Z,100.00
2023-04-04T00:07:17.659Z,100.00
2023-04-04T00:12:41.501Z,100.00
2023-04-04T00:18:13.622Z,100.00
2023-04-04T00:23:35.961Z,100.00
2023-04-04T00:28:58.128Z,100.00
2023-04-04T00:34:20.209Z,100.00
2023-04-04T00:39:42.137Z,100.00
2023-04-04T00:45:04.333Z,100.00
2023-04-04T00:50:26.671Z,100.00
2023-04-04T00:55:49.670Z,100.00
2023-04-04T01:01:14.377Z,100.00
2023-04-04T01:06:36.628Z,100.00
2023-04-04T01:11:59.069Z,100.00
2023-04-04T01:17:24.054Z,100.00
2023-04-04T01:22:48.769Z,100.00
2023-04-04T01:28:14.662Z,100.00
2023-04-04T01:33:43.861Z,100.00
2023-04-04T01:39:18.846Z,100.00
2023-04-04T01:44:43.784Z,100.00
2023-04-04T01:50:08.563Z,100.00
2023-04-04T01:55:33.078Z,100.00
2023-04-04T02:01:02.086Z,100.00
2023-04-04T02:06:26.506Z,100.00
2023-04-04T02:11:51.494Z,100.00
2023-04-04T02:17:14.466Z,100.00
2023-04-04T02:22:44.024Z,100.00
2023-04-04T02:28:06.751Z,100.00
2023-04-04T02:33:31.476Z,100.00
2023-04-04T02:39:00.317Z,100.00
2023-04-04T02:44:30.912Z,100.00
2023-04-04T02:49:58.458Z,100.00
2023-04-04T02:55:30.768Z,100.00
2023-04-04T03:13:51.797Z,100.00
2023-04-04T03:25:36.424Z,100.00
2023-04-04T03:31:07.681Z,100.00
2023-04-04T03:36:33.903Z,100.00
2023-04-04T03:41:59.793Z,100.00
2023-04-04T03:47:22.191Z,100.00
2023-04-04T03:52:45.438Z,100.00
2023-04-04T03:58:09.256Z,100.00
2023-04-04T04:03:32.335Z,100.00
2023-04-04T04:08:56.280Z,100.00
2023-04-04T04:14:19.006Z,100.00
2023-04-04T04:19:41.758Z,100.00
2023-04-04T04:25:03.820Z,100.00
2023-04-04T04:30:36.337Z,100.00
2023-04-04T04:36:02.742Z,100.00
2023-04-04T04:41:34.287Z,100.00
2023-04-04T04:46:57.716Z,100.00
2023-04-04T04:52:19.963Z,100.00
2023-04-04T04:57:42.383Z,100.00
2023-04-04T05:03:11.487Z,100.00
2023-04-04T05:08:40.421Z,100.00
2023-04-04T05:14:19.088Z,100.00
2023-04-04T05:19:52.330Z,100.00
2023-04-04T05:25:24.733Z,100.00
2023-04-04T05:30:47.933Z,100.00
2023-04-04T05:36:21.490Z,100.00
2023-04-04T05:41:50.040Z,100.00
2023-04-04T05:47:13.926Z,100.00
2023-04-04T05:52:39.919Z,100.00
2023-04-04T05:58:06.867Z,100.00
2023-04-04T06:03:41.115Z,100.00
2023-04-04T06:09:08.926Z,100.00
2023-04-04T06:14:31.706Z,100.00
2023-04-04T06:19:57.538Z,100.00
2023-04-04T06:25:45.819Z,100.00
2023-04-04T06:31:09.880Z,100.00
2023-04-04T06:36:31.728Z,100.00
2023-04-04T06:41:57.687Z,100.00
2023-04-04T06:47:23.082Z,100.00
2023-04-04T06:52:45.628Z,100.00
2023-04-04T06:58:10.208Z,100.00
2023-04-04T07:03:40.578Z,100.00
2023-04-04T07:14:40.846Z,100.00
2023-04-04T07:20:04.754Z,100.00
2023-04-04T07:25:31.777Z,100.00
2023-04-04T07:30:54.237Z,100.00
2023-04-04T07:36:16.717Z,100.00
2023-04-04T07:41:41.025Z,100.00
2023-04-04T07:47:09.930Z,100.00
2023-04-04T07:52:32.526Z,100.00
2023-04-04T07:57:55.321Z,100.00
2023-04-04T08:03:20.478Z,100.00
2023-04-04T08:08:43.651Z,100.00
2023-04-04T08:14:06.501Z,100.00
2023-04-04T08:19:28.700Z,100.00
2023-04-04T08:24:51.380Z,100.00
2023-04-04T08:30:14.921Z,100.00
2023-04-04T08:35:39.423Z,100.00
2023-04-04T08:41:02.771Z,100.00
2023-04-04T08:51:30.789Z,100.00
2023-04-04T08:56:54.007Z,100.00
2023-04-04T09:02:27.387Z,100.00
2023-04-04T09:07:51.290Z,99.19
2023-04-04T09:13:16.692Z,96.58
2023-04-04T09:18:38.836Z,94.14
2023-04-04T09:24:02.848Z,88.62
2023-04-04T09:29:24.382Z,89.46
2023-04-04T09:34:46.652Z,91.07
2023-04-04T09:40:11.123Z,91.37
2023-04-04T09:45:36.512Z,94.82
2023-04-04T09:51:01.842Z,87.00
2023-04-04T09:56:24.488Z,84.94
2023-04-04T10:01:47.239Z,90.68
2023-04-04T10:07:15.391Z,84.89
2023-04-04T10:12:40.464Z,82.54
2023-04-04T10:18:06.919Z,81.05
2023-04-04T10:23:29.497Z,84.21
2023-04-04T10:28:51.493Z,79.92
2023-04-04T10:34:21.253Z,82.68
2023-04-04T10:39:52.437Z,84.36
2023-04-04T10:45:21.566Z,85.51
2023-04-04T10:50:44.797Z,80.89
2023-04-04T10:56:08.247Z,76.78
2023-04-04T11:01:58.760Z,69.56
2023-04-04T11:07:21.182Z,74.65
2023-04-04T11:12:46.936Z,72.35
2023-04-04T11:18:26.001Z,70.47
2023-04-04T11:24:03.555Z,70.38
2023-04-04T11:29:54.692Z,75.08
2023-04-04T11:35:17.684Z,72.00
2023-04-04T11:40:43.421Z,71.45
2023-04-04T11:46:09.605Z,72.00
2023-04-04T11:51:33.339Z,71.18
2023-04-04T11:56:55.628Z,68.42
2023-04-04T12:02:22.367Z,70.44
2023-04-04T12:07:44.576Z,66.70
2023-04-04T12:13:08.411Z,68.52
2023-04-04T12:18:30.542Z,67.39
2023-04-04T12:23:52.598Z,64.63
2023-04-04T12:29:17.055Z,68.20
2023-04-04T12:34:49.855Z,71.34
2023-04-04T12:40:12.717Z,72.34
2023-04-04T12:45:39.615Z,71.10
2023-04-04T12:51:02.049Z,65.89
2023-04-04T12:56:28.083Z,61.92
2023-04-04T13:01:50.249Z,63.84
2023-04-04T13:07:44.693Z,63.86
2023-04-04T13:13:07.761Z,62.82
2023-04-04T13:18:37.848Z,61.75
2023-04-04T13:24:02.535Z,63.97
2023-04-04T13:29:25.804Z,63.54
2023-04-04T13:34:50.357Z,63.09
2023-04-04T13:40:13.928Z,64.42
2023-04-04T13:45:37.201Z,66.07
2023-04-04T13:50:59.243Z,64.12
2023-04-04T13:56:22.769Z,63.32
2023-04-04T14:01:45.389Z,66.43
2023-04-04T14:07:07.865Z,65.38
2023-04-04T14:12:33.046Z,64.74
2023-04-04T14:17:56.025Z,66.49
2023-04-04T14:23:18.998Z,65.84
2023-04-04T14:28:44.184Z,66.51
2023-04-04T14:34:05.954Z,69.07
2023-04-04T14:39:28.513Z,71.25
2023-04-04T14:44:50.434Z,73.18
2023-04-04T14:50:12.654Z,75.59
2023-04-04T14:55:34.895Z,77.62
2023-04-04T15:00:57.195Z,79.54
2023-04-04T15:06:19.472Z,81.81
2023-04-04T15:11:41.858Z,84.74
2023-04-04T15:17:04.087Z,87.15
2023-04-04T15:22:26.787Z,89.29
2023-04-04T15:27:49.419Z,90.81
2023-04-04T15:33:11.358Z,93.58
2023-04-04T15:38:33.275Z,96.20
2023-04-04T15:43:55.327Z,99.46
2023-04-04T15:49:17.136Z,100.00
2023-04-04T15:54:38.821Z,100.00
2023-04-04T16:00:00.774Z,100.00
2023-04-04T16:05:23.046Z,100.00
2023-04-04T16:10:45.313Z,100.00
2023-04-04T16:16:08.728Z,100.00
2023-04-04T16:21:31.928Z,100.00
2023-04-04T16:26:54.424Z,100.00
2023-04-04T16:32:16.644Z,100.00
2023-04-04T16:37:38.492Z,100.00
2023-04-04T16:42:59.986Z,100.00
2023-04-04T16:48:22.301Z,100.00
2023-04-04T16:53:43.984Z,100.00
2023-04-04T16:59:05.812Z,100.00
2023-04-04T17:04:27.875Z,100.00
2023-04-04T17:09:50.950Z,100.00
2023-04-04T17:15:14.030Z,100.00
2023-04-04T17:20:38.824Z,100.00
2023-04-04T17:26:01.457Z,100.00
2023-04-04T17:31:24.004Z,100.00
2023-04-04T17:36:46.761Z,100.00
2023-04-04T17:42:08.995Z,100.00
2023-04-04T17:47:31.347Z,100.00
2023-04-04T17:52:53.206Z,100.00
2023-04-04T17:58:16.340Z,100.00
2023-04-04T18:03:38.669Z,100.00
2023-04-04T18:09:02.700Z,100.00
2023-04-04T18:14:24.874Z,100.00
2023-04-04T18:19:47.347Z,100.00
2023-04-04T18:25:10.462Z,100.00
2023-04-04T18:30:35.710Z,100.00
2023-04-04T18:35:57.900Z,100.00
2023-04-04T18:41:21.554Z,100.00
2023-04-04T18:46:44.019Z,100.00
2023-04-04T18:52:06.609Z,100.00
2023-04-04T18:57:29.334Z,100.00
2023-04-04T19:02:54.950Z,100.00
2023-04-04T19:08:22.958Z,100.00
2023-04-04T19:13:45.511Z,100.00
2023-04-04T19:19:08.132Z,100.00
2023-04-04T19:24:31.225Z,100.00
2023-04-04T19:29:55.432Z,100.00
2023-04-04T19:35:22.194Z,100.00
2023-04-04T19:40:49.545Z,100.00
2023-04-04T19:46:15.575Z,100.00
2023-04-04T19:51:40.652Z,100.00
2023-04-04T19:57:07.747Z,100.00
2023-04-04T20:02:35.194Z,100.00
2023-04-04T20:07:57.449Z,100.00
2023-04-04T20:13:19.924Z,100.00
2023-04-04T20:18:44.605Z,100.00
2023-04-04T20:24:08.828Z,100.00
2023-04-04T20:29:32.012Z,100.00
2023-04-04T20:34:54.364Z,100.00
2023-04-04T20:40:38.843Z,100.00
2023-04-04T20:46:01.093Z,100.00
2023-04-04T20:51:28.790Z,100.00
2023-04-04T20:56:55.561Z,100.00
2023-04-04T21:02:21.186Z,100.00
2023-04-04T21:07:44.070Z,100.00
2023-04-04T21:13:06.817Z,100.00
2023-04-04T21:18:31.832Z,100.00
2023-04-04T21:23:55.544Z,100.00
2023-04-04T21:29:25.880Z,100.00
2023-04-04T21:34:47.794Z,100.00
2023-04-04T21:40:10.560Z,100.00
2023-04-04T21:45:34.127Z,100.00
2023-04-04T21:50:56.625Z,100.00
2023-04-04T21:56:19.451Z,100.00
2023-04-04T22:01:41.842Z,100.00
2023-04-04T22:07:03.904Z,100.00
2023-04-04T22:12:26.147Z,100.00
2023-04-04T22:17:52.099Z,100.00
2023-04-04T22:23:15.981Z,100.00
2023-04-04T22:28:53.805Z,100.00
2023-04-04T22:34:21.556Z,100.00
2023-04-04T22:39:52.191Z,100.00
2023-04-04T22:45:29.305Z,100.00
2023-04-04T22:51:05.902Z,100.00
2023-04-04T22:57:00.429Z,100.00
2023-04-04T23:02:56.823Z,100.00
2023-04-04T23:08:33.797Z,100.00
2023-04-04T23:14:27.446Z,100.00
2023-04-04T23:19:59.190Z,100.00
2023-04-04T23:25:34.986Z,100.00
2023-04-04T23:30:57.671Z,100.00
2023-04-04T23:36:21.378Z,100.00
2023-04-04T23:41:43.716Z,100.00
2023-04-04T23:47:06.075Z,100.00
2023-04-04T23:52:34.256Z,100.00
2023-04-04T23:58:06.557Z,100.00
